Garland Springs, Arkansas
Current Conditions -  °F | °C
As of 2:56 AM on Saturday 22 Nov 2014 (Local Time) from KSRC Reporting Station
Haze Haze  
Wind Chill: 44°   Ceiling: 5000
Heat Index: 44°   Visibility: 2mi
Dew Point: 44°   Wind: 0mph
Humidity: 100%   Direction: NA
Pressure: 30.25"   Gusts: NA
Location:  35.2847°N, 92.1468°W
Report Text: KSRC 220856Z AUTO 00000KT 2SM BR OVC050 07/07 A3025 RMK AO2 SLP252 T00670067 56004 TSNO
Loading
Personal Weather Stations






























Interactive Weather Map New forecast layout! Learn more

10-Day Weather Forecast

Advertisements
Track Severe Weather on mobile